Terminal Aerodrome Forecast
Issued by NWS

Home | Current Version | Previous Version | Text Only | Print | Product List | Glossary On
Versions: 1 2 3 4 5 6 7 8 9 10 11 12 13 14 15 16
000
FTUS42 KMLB 052334
TAFFPR
TAF
KFPR 052334Z 0600/0624 16006KT P6SM FEW050 SCT250
     FM060200 24007KT P6SM FEW025 SCT050
     FM060600 VRB02KT P6SM FEW020 SCT050 BKN060
     FM061400 35006KT P6SM SCT010 BKN020 OVC050=

USA.gov is the U.S. government's official web portal to all federal, state and local government web resources and services.